Metar z pełnej godziny Komunikat METAR ze strony awiacja.imgw.pl Metar G00 EPLL METAR EPLL 291800Z 33008KT 280V010 CAVOK 14/01 Q1022 =